createdAt,value
2023-03-04T00:00:57.160Z,16.03
2023-03-04T00:03:24.775Z,14.83
2023-03-04T00:05:52.296Z,15.27
2023-03-04T00:08:19.855Z,16.07
2023-03-04T00:10:47.425Z,15.97
2023-03-04T00:13:15.070Z,16.37
2023-03-04T00:15:42.603Z,16.33
2023-03-04T00:18:10.167Z,16.60
2023-03-04T00:20:37.648Z,14.67
2023-03-04T00:23:05.372Z,16.47
2023-03-04T00:25:33.553Z,15.77
2023-03-04T00:28:01.308Z,14.57
2023-03-04T00:30:28.863Z,14.77
2023-03-04T00:32:56.386Z,16.47
2023-03-04T00:35:24.794Z,16.20
2023-03-04T00:37:54.681Z,14.80
2023-03-04T00:40:22.216Z,13.93
2023-03-04T00:42:49.722Z,14.57
2023-03-04T00:45:17.369Z,15.03
2023-03-04T00:47:44.870Z,14.87
2023-03-04T00:50:12.428Z,14.53
2023-03-04T00:52:39.958Z,13.63
2023-03-04T00:55:08.720Z,15.17
2023-03-04T00:57:36.266Z,14.93
2023-03-04T01:00:05.111Z,14.37
2023-03-04T01:02:32.589Z,13.83
2023-03-04T01:05:00.133Z,13.90
2023-03-04T01:07:27.670Z,13.87
2023-03-04T01:09:55.323Z,13.70
2023-03-04T01:12:22.825Z,14.30
2023-03-04T01:14:50.355Z,12.93
2023-03-04T01:17:17.888Z,12.40
2023-03-04T01:19:45.487Z,12.93
2023-03-04T01:22:15.047Z,12.80
2023-03-04T01:24:43.364Z,13.50
2023-03-04T01:27:11.352Z,14.23
2023-03-04T01:29:38.962Z,11.83
2023-03-04T01:32:06.504Z,12.80
2023-03-04T01:34:34.283Z,12.93
2023-03-04T01:37:01.949Z,12.73
2023-03-04T01:39:29.531Z,13.40
2023-03-04T01:41:57.161Z,12.27
2023-03-04T01:44:25.419Z,12.70
2023-03-04T01:46:55.585Z,13.13
2023-03-04T01:49:25.416Z,12.07
2023-03-04T01:51:54.640Z,13.00
2023-03-04T01:54:22.997Z,11.67
2023-03-04T01:56:52.580Z,14.00
2023-03-04T01:59:23.601Z,13.77
2023-03-04T02:01:59.067Z,12.73
2023-03-04T02:04:31.156Z,12.40
2023-03-04T02:07:01.163Z,12.63
2023-03-04T02:09:30.600Z,12.33
2023-03-04T02:11:58.660Z,12.07
2023-03-04T02:14:26.389Z,11.67
2023-03-04T02:16:53.977Z,13.17
2023-03-04T02:19:53.687Z,12.83
2023-03-04T02:22:21.222Z,11.37
2023-03-04T02:25:06.425Z,12.33
2023-03-04T02:27:34.248Z,12.10
2023-03-04T02:30:02.001Z,12.03
2023-03-04T02:32:29.577Z,13.70
2023-03-04T02:34:57.359Z,10.87
2023-03-04T02:37:25.077Z,12.37
2023-03-04T02:39:54.734Z,13.33
2023-03-04T02:42:22.255Z,12.10
2023-03-04T02:44:50.384Z,12.93
2023-03-04T02:47:20.267Z,12.57
2023-03-04T02:49:49.488Z,12.37
2023-03-04T02:52:23.964Z,13.63
2023-03-04T02:54:51.903Z,12.93
2023-03-04T02:57:20.086Z,12.90
2023-03-04T02:59:52.574Z,13.13
2023-03-04T03:02:23.507Z,13.77
2023-03-04T03:04:52.155Z,13.10
2023-03-04T03:07:21.520Z,13.47
2023-03-04T03:09:49.870Z,11.97
2023-03-04T03:12:18.738Z,13.27
2023-03-04T03:14:46.236Z,13.30
2023-03-04T03:17:17.228Z,13.07
2023-03-04T03:19:44.908Z,13.73
2023-03-04T03:22:13.039Z,11.87
2023-03-04T03:24:41.335Z,12.20
2023-03-04T03:27:08.993Z,13.30
2023-03-04T03:29:36.598Z,13.13
2023-03-04T03:32:08.099Z,14.00
2023-03-04T03:34:35.690Z,12.97
2023-03-04T03:37:03.311Z,12.47
2023-03-04T03:39:30.839Z,12.83
2023-03-04T03:41:58.365Z,14.60
2023-03-04T03:44:25.963Z,14.57
2023-03-04T03:46:53.531Z,14.30
2023-03-04T03:49:21.557Z,12.90
2023-03-04T03:51:49.328Z,13.73
2023-03-04T03:54:16.830Z,15.73
2023-03-04T03:56:44.438Z,16.10
2023-03-04T03:59:12.006Z,13.53
2023-03-04T04:01:39.550Z,13.47
2023-03-04T04:04:07.128Z,15.17
2023-03-04T04:06:34.623Z,13.53
2023-03-04T04:09:02.133Z,14.43
2023-03-04T04:11:29.653Z,14.10
2023-03-04T04:13:57.189Z,15.80
2023-03-04T04:16:25.028Z,13.13
2023-03-04T04:18:52.601Z,13.53
2023-03-04T04:21:20.220Z,14.63
2023-03-04T04:23:47.780Z,13.93
2023-03-04T04:26:15.317Z,14.87
2023-03-04T04:28:42.835Z,13.60
2023-03-04T04:31:10.387Z,15.00
2023-03-04T04:33:38.278Z,15.40
2023-03-04T04:36:06.178Z,14.90
2023-03-04T04:38:33.673Z,14.17
2023-03-04T04:41:01.313Z,14.93
2023-03-04T04:43:28.807Z,14.40
2023-03-04T04:45:58.980Z,16.27
2023-03-04T04:48:26.585Z,14.17
2023-03-04T04:50:56.359Z,14.63
2023-03-04T04:53:23.946Z,14.80
2023-03-04T04:55:51.451Z,16.20
2023-03-04T04:58:18.925Z,15.07
2023-03-04T05:00:46.424Z,14.60
2023-03-04T05:03:13.921Z,14.50
2023-03-04T05:05:42.173Z,16.50
2023-03-04T05:08:09.641Z,14.13
2023-03-04T05:10:37.140Z,15.27
2023-03-04T05:13:04.612Z,14.70
2023-03-04T05:15:32.135Z,16.97
2023-03-04T05:17:59.637Z,15.13
2023-03-04T05:20:27.816Z,15.27
2023-03-04T05:22:55.381Z,14.77
2023-03-04T05:25:22.887Z,15.53
2023-03-04T05:27:50.380Z,15.20
2023-03-04T05:30:18.353Z,15.00
2023-03-04T05:32:45.901Z,15.87
2023-03-04T05:35:13.448Z,16.03
2023-03-04T05:37:41.089Z,14.60
2023-03-04T05:40:09.837Z,13.93
2023-03-04T05:42:37.345Z,16.30
2023-03-04T05:45:06.901Z,16.70
2023-03-04T05:47:34.526Z,14.50
2023-03-04T05:50:02.025Z,16.97
2023-03-04T05:52:29.617Z,16.50
2023-03-04T05:54:57.122Z,14.80
2023-03-04T05:57:24.790Z,15.93
2023-03-04T05:59:52.282Z,14.80
2023-03-04T06:02:19.879Z,18.73
2023-03-04T06:04:47.696Z,15.27
2023-03-04T06:07:15.233Z,17.20
2023-03-04T06:09:45.071Z,17.77
2023-03-04T06:12:13.074Z,15.87
2023-03-04T06:14:40.553Z,15.67
2023-03-04T06:17:08.170Z,18.30
2023-03-04T06:19:37.907Z,17.83
2023-03-04T06:22:05.770Z,15.43
2023-03-04T06:24:33.306Z,15.53
2023-03-04T06:27:00.904Z,15.30
2023-03-04T06:29:28.500Z,15.50
2023-03-04T06:31:56.086Z,16.27
2023-03-04T06:34:23.710Z,17.87
2023-03-04T06:36:51.395Z,15.90
2023-03-04T06:39:19.359Z,16.17
2023-03-04T06:41:46.857Z,16.20
2023-03-04T06:44:14.444Z,17.90
2023-03-04T06:46:42.633Z,18.90
2023-03-04T06:49:10.319Z,16.73
2023-03-04T06:51:37.944Z,15.20
2023-03-04T06:54:05.995Z,17.13
2023-03-04T06:56:33.627Z,16.37
2023-03-04T06:59:01.163Z,16.63
2023-03-04T07:01:29.739Z,17.20
2023-03-04T07:03:58.080Z,17.60
2023-03-04T07:06:28.215Z,18.37
2023-03-04T07:08:56.863Z,16.90
2023-03-04T07:11:25.033Z,17.13
2023-03-04T07:13:53.271Z,16.63
2023-03-04T07:16:23.511Z,19.13
2023-03-04T07:18:51.174Z,19.23
2023-03-04T07:21:19.122Z,18.83
2023-03-04T07:23:46.856Z,17.57
2023-03-04T07:26:14.862Z,16.70
2023-03-04T07:28:42.792Z,15.97
2023-03-04T07:31:19.024Z,15.00
2023-03-04T07:33:46.708Z,16.57
2023-03-04T07:36:16.882Z,16.87
2023-03-04T07:38:46.780Z,15.00
2023-03-04T07:41:14.936Z,17.53
2023-03-04T07:43:42.577Z,18.10
2023-03-04T07:46:11.049Z,14.47
2023-03-04T07:48:38.666Z,16.70
2023-03-04T07:51:09.198Z,18.30
2023-03-04T07:53:38.695Z,17.03
2023-03-04T07:56:08.721Z,19.30
2023-03-04T07:58:36.332Z,18.30
2023-03-04T08:01:14.203Z,19.63
2023-03-04T08:03:42.223Z,16.43
2023-03-04T08:06:13.178Z,16.03
2023-03-04T08:08:40.742Z,16.93
2023-03-04T08:11:12.191Z,16.80
2023-03-04T08:13:39.989Z,14.83
2023-03-04T08:16:08.106Z,15.30
2023-03-04T08:18:35.744Z,16.27
2023-03-04T08:21:07.836Z,14.70
2023-03-04T08:23:35.486Z,14.50
2023-03-04T08:26:12.229Z,15.93
2023-03-04T08:28:40.028Z,17.53
2023-03-04T08:31:07.671Z,15.73
2023-03-04T08:33:35.462Z,12.77
2023-03-04T08:36:03.170Z,16.23
2023-03-04T08:38:31.852Z,15.93
2023-03-04T08:40:59.471Z,14.53
2023-03-04T08:43:27.229Z,14.73
2023-03-04T08:45:54.920Z,16.37
2023-03-04T08:48:23.195Z,15.87
2023-03-04T08:50:51.196Z,16.63
2023-03-04T08:53:20.623Z,14.77
2023-03-04T08:55:49.083Z,14.43
2023-03-04T08:58:16.582Z,15.27
2023-03-04T09:00:48.335Z,16.03
2023-03-04T09:03:19.391Z,14.50
2023-03-04T09:05:48.408Z,16.03
2023-03-04T09:08:16.980Z,13.73
2023-03-04T09:10:46.525Z,13.13
2023-03-04T09:13:17.373Z,14.80
2023-03-04T09:15:50.674Z,13.50
2023-03-04T09:18:20.718Z,13.85
2023-03-04T09:20:48.539Z,13.33
2023-03-04T09:23:16.494Z,15.67
2023-03-04T09:25:46.325Z,16.83
2023-03-04T09:28:15.468Z,16.63
2023-03-04T09:30:43.649Z,19.13
2023-03-04T09:33:11.674Z,17.03
2023-03-04T09:35:39.325Z,16.43
2023-03-04T09:38:07.142Z,15.80
2023-03-04T09:40:46.539Z,18.07
2023-03-04T09:43:29.958Z,17.83
2023-03-04T09:46:03.210Z,15.23
2023-03-04T09:48:47.617Z,14.23
2023-03-04T09:54:18.408Z,15.83
2023-03-04T09:56:45.952Z,14.67
2023-03-04T09:59:31.422Z,16.67
2023-03-04T10:02:03.586Z,17.90
2023-03-04T10:04:41.684Z,16.33
2023-03-04T10:07:25.953Z,17.13
2023-03-04T10:10:04.542Z,17.25
2023-03-04T10:12:37.809Z,16.10
2023-03-04T10:15:18.851Z,16.50
2023-03-04T10:17:53.654Z,19.47
2023-03-04T10:20:47.658Z,18.27
2023-03-04T10:23:22.061Z,18.23
2023-03-04T10:25:54.038Z,19.73
2023-03-04T10:28:27.990Z,19.20
2023-03-04T10:31:36.536Z,19.02
2023-03-04T10:34:05.665Z,20.97
2023-03-04T10:36:55.543Z,20.70
2023-03-04T10:39:34.579Z,22.17
2023-03-04T10:42:14.399Z,22.30
2023-03-04T10:44:59.392Z,19.80
2023-03-04T10:47:32.946Z,20.73
2023-03-04T10:50:05.333Z,23.33
2023-03-04T10:52:41.099Z,22.97
2023-03-04T10:55:41.077Z,21.03
2023-03-04T10:58:18.132Z,24.07
2023-03-04T11:01:06.012Z,22.53
2023-03-04T11:03:36.821Z,22.53
2023-03-04T11:06:12.004Z,22.93
2023-03-04T11:08:41.163Z,23.63
2023-03-04T11:11:37.662Z,20.97
2023-03-04T11:14:29.371Z,21.20
2023-03-04T11:17:03.464Z,20.73
2023-03-04T11:22:06.267Z,23.80
2023-03-04T11:24:37.742Z,20.80
2023-03-04T11:27:20.926Z,26.80
2023-03-04T11:30:16.497Z,24.20
2023-03-04T11:32:48.006Z,19.20
2023-03-04T11:35:28.448Z,19.30
2023-03-04T11:38:22.523Z,21.43
2023-03-04T11:40:57.032Z,23.90
2023-03-04T11:43:37.373Z,20.67
2023-03-04T11:46:42.450Z,22.53
2023-03-04T11:49:34.156Z,21.87
2023-03-04T11:52:18.628Z,23.00
2023-03-04T11:55:18.130Z,24.03
2023-03-04T11:58:12.498Z,24.23
2023-03-04T12:01:25.846Z,24.75
2023-03-04T12:04:23.693Z,24.73
2023-03-04T12:07:47.425Z,24.80
2023-03-04T12:10:50.953Z,24.87
2023-03-04T12:13:55.644Z,24.20
2023-03-04T12:16:28.238Z,24.40
2023-03-04T12:19:23.192Z,25.40
2023-03-04T12:22:24.834Z,23.33
2023-03-04T12:25:19.491Z,24.57
2023-03-04T12:28:01.024Z,18.37
2023-03-04T12:31:12.744Z,22.53
2023-03-04T12:34:07.978Z,19.07
2023-03-04T12:37:25.675Z,19.53
2023-03-04T12:40:17.243Z,19.30
2023-03-04T12:43:25.012Z,18.27
2023-03-04T12:46:24.699Z,16.03
2023-03-04T12:49:19.471Z,16.60
2023-03-04T12:52:23.370Z,16.30
2023-03-04T12:54:57.866Z,14.40
2023-03-04T12:57:31.582Z,16.53
2023-03-04T13:00:38.850Z,15.70
2023-03-04T13:03:33.654Z,16.40
2023-03-04T13:06:16.588Z,10.17
2023-03-04T13:09:37.566Z,12.67
2023-03-04T13:12:25.470Z,14.27
2023-03-04T13:15:07.685Z,13.93
2023-03-04T13:17:59.140Z,13.97
2023-03-04T13:20:41.462Z,12.47
2023-03-04T13:23:08.829Z,15.10
2023-03-04T13:26:08.285Z,12.23
2023-03-04T13:28:37.237Z,12.17
2023-03-04T13:31:09.520Z,10.87
2023-03-04T13:33:36.866Z,11.20
2023-03-04T13:36:25.551Z,12.87
2023-03-04T13:39:27.742Z,13.27
2023-03-04T13:41:56.884Z,14.93
2023-03-04T13:44:44.021Z,12.97
2023-03-04T13:47:20.071Z,14.43
2023-03-04T13:49:47.714Z,15.03
2023-03-04T13:52:40.388Z,13.80
2023-03-04T13:55:37.511Z,12.03
2023-03-04T13:58:23.029Z,12.40
2023-03-04T14:00:55.270Z,13.97
2023-03-04T14:03:30.363Z,14.17
2023-03-04T14:06:20.994Z,14.20
2023-03-04T14:08:50.248Z,15.07
2023-03-04T14:11:41.736Z,15.67
2023-03-04T14:14:21.234Z,16.27
2023-03-04T14:17:00.017Z,15.23
2023-03-04T14:19:48.443Z,16.33
2023-03-04T14:22:24.536Z,16.53
2023-03-04T14:25:13.548Z,15.80
2023-03-04T14:27:41.584Z,16.90
2023-03-04T14:30:39.532Z,16.43
2023-03-04T14:33:19.682Z,17.37
2023-03-04T14:35:50.803Z,16.87
2023-03-04T14:38:38.072Z,17.20
2023-03-04T14:41:10.375Z,16.80
2023-03-04T14:44:01.467Z,21.03
2023-03-04T14:46:43.058Z,23.70
2023-03-04T14:49:14.436Z,19.67
2023-03-04T14:51:52.189Z,17.80
2023-03-04T14:54:41.475Z,16.07
2023-03-04T14:57:26.446Z,15.97
2023-03-04T14:59:54.778Z,15.83
2023-03-04T15:02:33.580Z,17.30
2023-03-04T15:05:31.911Z,15.90
2023-03-04T15:08:02.655Z,16.47
2023-03-04T15:10:37.959Z,15.87
2023-03-04T15:13:09.131Z,15.53
2023-03-04T15:15:46.316Z,15.63
2023-03-04T15:18:26.232Z,15.80
2023-03-04T15:21:04.576Z,15.60
2023-03-04T15:23:33.776Z,14.63
2023-03-04T15:26:05.705Z,16.03
2023-03-04T15:28:39.130Z,16.53
2023-03-04T15:31:15.474Z,15.70
2023-03-04T15:33:43.048Z,16.93
2023-03-04T15:36:18.105Z,14.07
2023-03-04T15:38:53.001Z,14.87
2023-03-04T15:41:27.098Z,15.10
2023-03-04T15:46:22.440Z,14.67
2023-03-04T15:48:50.098Z,16.57
2023-03-04T15:51:23.057Z,15.70
2023-03-04T15:53:58.902Z,15.37
2023-03-04T15:56:33.005Z,15.57
2023-03-04T16:01:38.708Z,14.07
2023-03-04T16:04:06.418Z,12.30
2023-03-04T16:06:34.017Z,16.23
2023-03-04T16:09:01.543Z,13.43
2023-03-04T16:11:33.928Z,14.53
2023-03-04T16:14:01.519Z,15.10
2023-03-04T16:16:29.587Z,14.93
2023-03-04T16:18:57.109Z,16.00
2023-03-04T16:21:24.871Z,13.13
2023-03-04T16:23:54.332Z,15.37
2023-03-04T16:26:25.778Z,15.00
2023-03-04T16:28:54.225Z,15.50
2023-03-04T16:31:22.631Z,14.93
2023-03-04T16:33:50.201Z,14.17
2023-03-04T16:36:25.669Z,14.20
2023-03-04T16:38:56.253Z,14.07
2023-03-04T16:41:28.301Z,15.60
2023-03-04T16:43:58.731Z,13.70
2023-03-04T16:46:26.275Z,13.43
2023-03-04T16:48:53.985Z,15.00
2023-03-04T16:51:23.304Z,13.70
2023-03-04T16:53:59.991Z,16.40
2023-03-04T16:56:28.096Z,18.83
2023-03-04T16:58:55.625Z,22.87
2023-03-04T17:01:28.974Z,16.93
2023-03-04T17:03:57.066Z,15.57
2023-03-04T17:06:24.956Z,15.20
2023-03-04T17:08:52.444Z,16.00
2023-03-04T17:11:23.456Z,19.40
2023-03-04T17:13:51.525Z,16.17
2023-03-04T17:16:19.287Z,16.57
2023-03-04T17:18:46.932Z,15.17
2023-03-04T17:21:18.870Z,18.47
2023-03-04T17:23:46.456Z,15.53
2023-03-04T17:26:15.483Z,14.83
2023-03-04T17:28:43.221Z,17.83
2023-03-04T17:31:14.010Z,17.73
2023-03-04T17:33:43.764Z,15.50
2023-03-04T17:36:12.623Z,14.73
2023-03-04T17:38:40.574Z,14.93
2023-03-04T17:41:15.802Z,15.30
2023-03-04T17:43:49.535Z,14.90
2023-03-04T17:46:21.926Z,15.18
2023-03-04T17:48:51.699Z,15.13
2023-03-04T17:51:19.200Z,16.47
2023-03-04T17:53:46.701Z,14.40
2023-03-04T17:56:14.189Z,16.03
2023-03-04T17:58:41.969Z,15.00
2023-03-04T18:01:19.364Z,15.23
2023-03-04T18:03:47.497Z,15.83
2023-03-04T18:06:15.230Z,15.50
2023-03-04T18:08:43.164Z,14.53
2023-03-04T18:11:11.768Z,14.23
2023-03-04T18:13:43.710Z,14.40
2023-03-04T18:16:15.660Z,13.83
2023-03-04T18:18:43.654Z,14.47
2023-03-04T18:21:13.479Z,13.27
2023-03-04T18:23:40.969Z,14.90
2023-03-04T18:26:08.498Z,13.73
2023-03-04T18:28:36.136Z,13.10
2023-03-04T18:31:04.165Z,14.10
2023-03-04T18:33:33.426Z,14.27
2023-03-04T18:36:05.520Z,12.83
2023-03-04T18:38:33.465Z,12.73
2023-03-04T18:41:06.494Z,13.37
2023-03-04T18:43:35.059Z,14.43
2023-03-04T18:46:21.156Z,12.97
2023-03-04T18:48:53.361Z,14.53
2023-03-04T18:51:21.382Z,14.03
2023-03-04T18:53:48.864Z,16.40
2023-03-04T18:56:23.317Z,17.27
2023-03-04T18:58:51.568Z,20.67
2023-03-04T19:01:21.939Z,15.00
2023-03-04T19:03:50.521Z,14.80
2023-03-04T19:06:18.573Z,13.70
2023-03-04T19:08:46.136Z,14.10
2023-03-04T19:11:14.618Z,15.87
2023-03-04T19:13:42.129Z,14.13
2023-03-04T19:16:09.636Z,12.77
2023-03-04T19:18:37.241Z,14.43
2023-03-04T19:21:05.622Z,14.03
2023-03-04T19:23:33.262Z,12.40
2023-03-04T19:26:01.075Z,12.97
2023-03-04T19:28:28.550Z,13.90
2023-03-04T19:30:59.153Z,12.63
2023-03-04T19:33:26.922Z,13.27
2023-03-04T19:35:54.489Z,13.20
2023-03-04T19:38:22.337Z,13.43
2023-03-04T19:40:49.846Z,14.73
2023-03-04T19:43:17.347Z,16.30
2023-03-04T19:45:56.352Z,14.13
2023-03-04T19:48:24.362Z,13.47
2023-03-04T19:50:51.953Z,14.33
2023-03-04T19:53:19.530Z,16.00
2023-03-04T19:55:49.222Z,14.10
2023-03-04T19:58:16.863Z,14.47
2023-03-04T20:00:45.279Z,12.33
2023-03-04T20:03:13.418Z,13.67
2023-03-04T20:05:41.149Z,12.80
2023-03-04T20:08:08.645Z,12.93
2023-03-04T20:10:37.542Z,13.60
2023-03-04T20:13:07.688Z,15.07
2023-03-04T20:15:35.669Z,12.37
2023-03-04T20:18:04.018Z,14.17
2023-03-04T20:20:31.868Z,14.43
2023-03-04T20:22:59.422Z,13.13
2023-03-04T20:25:28.955Z,12.47
2023-03-04T20:27:57.405Z,12.10
2023-03-04T20:30:25.160Z,13.33
2023-03-04T20:32:52.665Z,12.53
2023-03-04T20:35:20.569Z,13.30
2023-03-04T20:37:48.084Z,15.47
2023-03-04T20:40:15.595Z,14.27
2023-03-04T20:42:43.213Z,14.33
2023-03-04T20:45:11.430Z,13.20
2023-03-04T20:47:39.740Z,12.70
2023-03-04T20:50:08.047Z,11.97
2023-03-04T20:52:35.517Z,11.67
2023-03-04T20:55:03.076Z,11.80
2023-03-04T20:57:30.597Z,11.27
2023-03-04T20:59:58.409Z,12.73
2023-03-04T21:02:26.347Z,12.37
2023-03-04T21:04:55.452Z,10.20
2023-03-04T21:07:24.265Z,11.50
2023-03-04T21:09:51.756Z,13.13
2023-03-04T21:12:19.766Z,12.37
2023-03-04T21:14:47.254Z,15.10
2023-03-04T21:17:15.033Z,13.67
2023-03-04T21:19:43.456Z,12.37
2023-03-04T21:22:17.506Z,15.83
2023-03-04T21:27:14.913Z,15.67
2023-03-04T21:29:42.409Z,15.27
2023-03-04T21:32:26.795Z,18.07
2023-03-04T21:34:56.110Z,17.67
2023-03-04T21:37:25.396Z,14.73
2023-03-04T21:39:54.238Z,13.07
2023-03-04T21:42:22.410Z,14.57
2023-03-04T21:44:51.459Z,14.27
2023-03-04T21:47:21.055Z,12.90
2023-03-04T21:49:48.647Z,13.07
2023-03-04T21:52:18.208Z,11.23
2023-03-04T21:54:45.852Z,12.03
2023-03-04T21:57:14.246Z,12.47
2023-03-04T21:59:42.177Z,11.60
2023-03-04T22:02:16.823Z,10.20
2023-03-04T22:04:44.610Z,11.10
2023-03-04T22:07:12.933Z,10.07
2023-03-04T22:09:40.497Z,10.60
2023-03-04T22:12:08.196Z,10.03
2023-03-04T22:14:35.704Z,9.43
2023-03-04T22:17:03.370Z,10.27
2023-03-04T22:19:32.500Z,8.33
2023-03-04T22:22:00.234Z,9.00
2023-03-04T22:24:28.271Z,8.27
2023-03-04T22:26:57.528Z,9.83
2023-03-04T22:29:25.063Z,9.73
2023-03-04T22:31:52.675Z,9.17
2023-03-04T22:34:20.385Z,9.63
2023-03-04T22:36:49.140Z,9.50
2023-03-04T22:39:22.794Z,9.70
2023-03-04T22:41:50.318Z,9.00
2023-03-04T22:44:18.143Z,9.83
2023-03-04T22:46:45.635Z,9.50
2023-03-04T22:49:14.558Z,10.43
2023-03-04T22:51:44.285Z,10.33
2023-03-04T22:54:15.136Z,9.77
2023-03-04T22:56:42.832Z,9.53
2023-03-04T22:59:10.443Z,8.53
2023-03-04T23:01:37.964Z,9.60
2023-03-04T23:04:05.661Z,9.47
2023-03-04T23:06:33.314Z,9.90
2023-03-04T23:09:00.840Z,9.60
2023-03-04T23:11:35.464Z,9.00
2023-03-04T23:14:06.813Z,9.50
2023-03-04T23:16:43.043Z,9.43
2023-03-04T23:19:16.632Z,10.17
2023-03-04T23:21:44.596Z,10.73
2023-03-04T23:24:13.460Z,9.50
2023-03-04T23:26:43.019Z,9.57
2023-03-04T23:29:14.104Z,10.60
2023-03-04T23:31:42.559Z,9.23
2023-03-04T23:34:11.188Z,10.47
2023-03-04T23:36:39.226Z,9.57
2023-03-04T23:39:07.508Z,9.00
2023-03-04T23:41:35.894Z,10.73
2023-03-04T23:44:04.574Z,9.30
2023-03-04T23:46:32.345Z,10.20
2023-03-04T23:48:59.892Z,10.73
2023-03-04T23:51:29.346Z,11.23
2023-03-04T23:53:57.872Z,9.67
2023-03-04T23:56:31.200Z,10.73
2023-03-04T23:58:59.794Z,10.95
